sensor_id;sensor_type;location;lat;lon;timestamp;P1;durP1;ratioP1;P2;durP2;ratioP2
769;SDS011;368;48.698;9.116;2023-03-04T00:02:17;46.43;;;32.27;;
769;SDS011;368;48.698;9.116;2023-03-04T00:04:43;50.70;;;32.50;;
769;SDS011;368;48.698;9.116;2023-03-04T00:07:10;43.83;;;30.15;;
769;SDS011;368;48.698;9.116;2023-03-04T00:09:40;40.93;;;29.60;;
769;SDS011;368;48.698;9.116;2023-03-04T00:12:09;42.10;;;30.48;;
769;SDS011;368;48.698;9.116;2023-03-04T00:14:35;47.50;;;30.00;;
769;SDS011;368;48.698;9.116;2023-03-04T00:17:03;45.75;;;29.65;;
769;SDS011;368;48.698;9.116;2023-03-04T00:19:31;46.47;;;30.17;;
769;SDS011;368;48.698;9.116;2023-03-04T00:22:00;44.72;;;29.65;;
769;SDS011;368;48.698;9.116;2023-03-04T00:24:28;46.03;;;31.43;;
769;SDS011;368;48.698;9.116;2023-03-04T00:26:55;50.92;;;33.90;;
769;SDS011;368;48.698;9.116;2023-03-04T00:29:23;47.85;;;31.52;;
769;SDS011;368;48.698;9.116;2023-03-04T00:31:50;45.25;;;30.30;;
769;SDS011;368;48.698;9.116;2023-03-04T00:34:16;44.67;;;29.98;;
769;SDS011;368;48.698;9.116;2023-03-04T00:36:44;42.80;;;29.15;;
769;SDS011;368;48.698;9.116;2023-03-04T00:39:11;40.78;;;28.75;;
769;SDS011;368;48.698;9.116;2023-03-04T00:41:39;47.00;;;31.52;;
769;SDS011;368;48.698;9.116;2023-03-04T00:44:06;49.05;;;30.48;;
769;SDS011;368;48.698;9.116;2023-03-04T00:46:35;40.25;;;28.13;;
769;SDS011;368;48.698;9.116;2023-03-04T00:49:02;45.72;;;30.80;;
769;SDS011;368;48.698;9.116;2023-03-04T00:51:29;43.90;;;30.92;;
769;SDS011;368;48.698;9.116;2023-03-04T00:53:56;53.17;;;31.50;;
769;SDS011;368;48.698;9.116;2023-03-04T00:56:23;49.53;;;32.45;;
769;SDS011;368;48.698;9.116;2023-03-04T00:58:49;46.38;;;31.92;;
769;SDS011;368;48.698;9.116;2023-03-04T01:01:16;52.10;;;32.20;;
769;SDS011;368;48.698;9.116;2023-03-04T01:03:44;47.03;;;33.00;;
769;SDS011;368;48.698;9.116;2023-03-04T01:06:12;43.17;;;29.88;;
769;SDS011;368;48.698;9.116;2023-03-04T01:08:39;49.33;;;32.65;;
769;SDS011;368;48.698;9.116;2023-03-04T01:11:06;45.63;;;32.20;;
769;SDS011;368;48.698;9.116;2023-03-04T01:13:35;46.45;;;32.97;;
769;SDS011;368;48.698;9.116;2023-03-04T01:16:04;49.60;;;31.80;;
769;SDS011;368;48.698;9.116;2023-03-04T01:18:31;43.88;;;30.42;;
769;SDS011;368;48.698;9.116;2023-03-04T01:21:00;49.88;;;32.45;;
769;SDS011;368;48.698;9.116;2023-03-04T01:23:27;47.63;;;32.95;;
769;SDS011;368;48.698;9.116;2023-03-04T01:25:53;49.28;;;31.55;;
769;SDS011;368;48.698;9.116;2023-03-04T01:28:20;47.03;;;31.08;;
769;SDS011;368;48.698;9.116;2023-03-04T01:30:47;46.28;;;30.48;;
769;SDS011;368;48.698;9.116;2023-03-04T01:33:14;46.55;;;32.67;;
769;SDS011;368;48.698;9.116;2023-03-04T01:35:42;50.47;;;32.45;;
769;SDS011;368;48.698;9.116;2023-03-04T01:38:16;50.20;;;33.50;;
769;SDS011;368;48.698;9.116;2023-03-04T01:40:45;51.15;;;31.85;;
769;SDS011;368;48.698;9.116;2023-03-04T01:43:14;52.42;;;33.67;;
769;SDS011;368;48.698;9.116;2023-03-04T01:45:45;48.13;;;30.80;;
769;SDS011;368;48.698;9.116;2023-03-04T01:48:13;50.20;;;33.13;;
769;SDS011;368;48.698;9.116;2023-03-04T01:50:43;51.40;;;32.42;;
769;SDS011;368;48.698;9.116;2023-03-04T01:53:12;47.78;;;31.55;;
769;SDS011;368;48.698;9.116;2023-03-04T01:55:45;43.92;;;30.85;;
769;SDS011;368;48.698;9.116;2023-03-04T01:58:12;48.83;;;32.08;;
769;SDS011;368;48.698;9.116;2023-03-04T02:00:39;48.55;;;31.70;;
769;SDS011;368;48.698;9.116;2023-03-04T02:03:06;44.80;;;31.00;;
769;SDS011;368;48.698;9.116;2023-03-04T02:05:37;46.47;;;32.70;;
769;SDS011;368;48.698;9.116;2023-03-04T02:08:06;47.35;;;32.22;;
769;SDS011;368;48.698;9.116;2023-03-04T02:10:35;47.30;;;30.38;;
769;SDS011;368;48.698;9.116;2023-03-04T02:13:03;46.05;;;32.15;;
769;SDS011;368;48.698;9.116;2023-03-04T02:15:30;48.53;;;32.35;;
769;SDS011;368;48.698;9.116;2023-03-04T02:17:58;45.28;;;32.97;;
769;SDS011;368;48.698;9.116;2023-03-04T02:20:29;47.65;;;32.35;;
769;SDS011;368;48.698;9.116;2023-03-04T02:23:06;51.90;;;31.35;;
769;SDS011;368;48.698;9.116;2023-03-04T02:25:38;54.65;;;33.17;;
769;SDS011;368;48.698;9.116;2023-03-04T02:28:11;55.17;;;35.63;;
769;SDS011;368;48.698;9.116;2023-03-04T02:30:38;48.15;;;33.00;;
769;SDS011;368;48.698;9.116;2023-03-04T02:33:05;52.45;;;33.53;;
769;SDS011;368;48.698;9.116;2023-03-04T02:35:35;47.45;;;30.95;;
769;SDS011;368;48.698;9.116;2023-03-04T02:38:02;50.13;;;33.25;;
769;SDS011;368;48.698;9.116;2023-03-04T02:40:29;55.05;;;34.25;;
769;SDS011;368;48.698;9.116;2023-03-04T02:42:58;49.25;;;34.60;;
769;SDS011;368;48.698;9.116;2023-03-04T02:45:38;45.42;;;30.83;;
769;SDS011;368;48.698;9.116;2023-03-04T02:48:08;53.40;;;33.95;;
769;SDS011;368;48.698;9.116;2023-03-04T02:50:36;58.60;;;34.30;;
769;SDS011;368;48.698;9.116;2023-03-04T02:53:05;50.22;;;32.63;;
769;SDS011;368;48.698;9.116;2023-03-04T02:55:32;54.53;;;33.53;;
769;SDS011;368;48.698;9.116;2023-03-04T02:57:59;53.58;;;34.20;;
769;SDS011;368;48.698;9.116;2023-03-04T03:00:26;50.28;;;33.97;;
769;SDS011;368;48.698;9.116;2023-03-04T03:02:55;48.55;;;30.42;;
769;SDS011;368;48.698;9.116;2023-03-04T03:05:22;48.55;;;32.33;;
769;SDS011;368;48.698;9.116;2023-03-04T03:07:50;45.45;;;32.10;;
769;SDS011;368;48.698;9.116;2023-03-04T03:10:17;52.80;;;34.50;;
769;SDS011;368;48.698;9.116;2023-03-04T03:12:45;46.95;;;32.60;;
769;SDS011;368;48.698;9.116;2023-03-04T03:15:12;51.05;;;32.83;;
769;SDS011;368;48.698;9.116;2023-03-04T03:17:39;48.83;;;33.13;;
769;SDS011;368;48.698;9.116;2023-03-04T03:20:10;50.95;;;34.05;;
769;SDS011;368;48.698;9.116;2023-03-04T03:22:38;47.00;;;32.08;;
769;SDS011;368;48.698;9.116;2023-03-04T03:25:05;48.70;;;32.83;;
769;SDS011;368;48.698;9.116;2023-03-04T03:27:33;42.53;;;31.55;;
769;SDS011;368;48.698;9.116;2023-03-04T03:30:00;46.40;;;30.38;;
769;SDS011;368;48.698;9.116;2023-03-04T03:32:27;47.88;;;30.50;;
769;SDS011;368;48.698;9.116;2023-03-04T03:34:54;44.35;;;31.90;;
769;SDS011;368;48.698;9.116;2023-03-04T03:37:22;48.97;;;31.40;;
769;SDS011;368;48.698;9.116;2023-03-04T03:39:49;50.83;;;32.15;;
769;SDS011;368;48.698;9.116;2023-03-04T03:42:16;43.50;;;30.50;;
769;SDS011;368;48.698;9.116;2023-03-04T03:44:43;42.15;;;29.77;;
769;SDS011;368;48.698;9.116;2023-03-04T03:47:09;47.72;;;31.58;;
769;SDS011;368;48.698;9.116;2023-03-04T03:49:36;43.78;;;31.13;;
769;SDS011;368;48.698;9.116;2023-03-04T03:52:04;45.17;;;30.92;;
769;SDS011;368;48.698;9.116;2023-03-04T03:54:33;46.13;;;30.92;;
769;SDS011;368;48.698;9.116;2023-03-04T03:57:00;46.92;;;31.30;;
769;SDS011;368;48.698;9.116;2023-03-04T03:59:27;43.88;;;29.60;;
769;SDS011;368;48.698;9.116;2023-03-04T04:01:54;42.83;;;30.02;;
769;SDS011;368;48.698;9.116;2023-03-04T04:04:20;51.17;;;32.60;;
769;SDS011;368;48.698;9.116;2023-03-04T04:06:47;47.88;;;31.92;;
769;SDS011;368;48.698;9.116;2023-03-04T04:09:14;49.45;;;31.90;;
769;SDS011;368;48.698;9.116;2023-03-04T04:11:42;46.13;;;31.85;;
769;SDS011;368;48.698;9.116;2023-03-04T04:14:10;52.22;;;31.95;;
769;SDS011;368;48.698;9.116;2023-03-04T04:16:37;43.08;;;30.58;;
769;SDS011;368;48.698;9.116;2023-03-04T04:19:04;45.17;;;30.35;;
769;SDS011;368;48.698;9.116;2023-03-04T04:21:31;41.75;;;28.90;;
769;SDS011;368;48.698;9.116;2023-03-04T04:23:58;49.08;;;30.27;;
769;SDS011;368;48.698;9.116;2023-03-04T04:26:25;48.63;;;29.25;;
769;SDS011;368;48.698;9.116;2023-03-04T04:28:53;45.05;;;29.80;;
769;SDS011;368;48.698;9.116;2023-03-04T04:31:20;39.78;;;29.65;;
769;SDS011;368;48.698;9.116;2023-03-04T04:33:47;41.95;;;29.70;;
769;SDS011;368;48.698;9.116;2023-03-04T04:36:14;44.65;;;27.83;;
769;SDS011;368;48.698;9.116;2023-03-04T04:38:41;38.78;;;27.73;;
769;SDS011;368;48.698;9.116;2023-03-04T04:41:12;44.80;;;29.05;;
769;SDS011;368;48.698;9.116;2023-03-04T04:43:44;45.00;;;29.92;;
769;SDS011;368;48.698;9.116;2023-03-04T04:46:12;44.03;;;27.67;;
769;SDS011;368;48.698;9.116;2023-03-04T04:48:39;45.33;;;30.23;;
769;SDS011;368;48.698;9.116;2023-03-04T04:51:06;49.92;;;29.33;;
769;SDS011;368;48.698;9.116;2023-03-04T04:53:33;45.58;;;30.52;;
769;SDS011;368;48.698;9.116;2023-03-04T04:56:06;42.33;;;28.00;;
769;SDS011;368;48.698;9.116;2023-03-04T04:58:35;47.10;;;29.52;;
769;SDS011;368;48.698;9.116;2023-03-04T05:01:03;47.90;;;31.30;;
769;SDS011;368;48.698;9.116;2023-03-04T05:03:32;41.83;;;29.27;;
769;SDS011;368;48.698;9.116;2023-03-04T05:06:00;47.53;;;29.42;;
769;SDS011;368;48.698;9.116;2023-03-04T05:08:27;42.92;;;28.63;;
769;SDS011;368;48.698;9.116;2023-03-04T05:10:54;38.50;;;26.63;;
769;SDS011;368;48.698;9.116;2023-03-04T05:13:20;40.40;;;27.30;;
769;SDS011;368;48.698;9.116;2023-03-04T05:15:49;40.55;;;27.85;;
769;SDS011;368;48.698;9.116;2023-03-04T05:18:17;37.70;;;26.95;;
769;SDS011;368;48.698;9.116;2023-03-04T05:20:45;40.20;;;27.75;;
769;SDS011;368;48.698;9.116;2023-03-04T05:23:15;46.25;;;29.13;;
769;SDS011;368;48.698;9.116;2023-03-04T05:25:42;38.70;;;26.77;;
769;SDS011;368;48.698;9.116;2023-03-04T05:28:09;42.17;;;27.85;;
769;SDS011;368;48.698;9.116;2023-03-04T05:30:36;41.28;;;28.85;;
769;SDS011;368;48.698;9.116;2023-03-04T05:33:03;42.53;;;25.63;;
769;SDS011;368;48.698;9.116;2023-03-04T05:35:31;46.70;;;28.40;;
769;SDS011;368;48.698;9.116;2023-03-04T05:37:59;38.33;;;26.63;;
769;SDS011;368;48.698;9.116;2023-03-04T05:40:26;41.95;;;26.50;;
769;SDS011;368;48.698;9.116;2023-03-04T05:42:53;47.30;;;33.65;;
769;SDS011;368;48.698;9.116;2023-03-04T05:45:20;53.25;;;33.08;;
769;SDS011;368;48.698;9.116;2023-03-04T05:47:47;40.72;;;30.63;;
769;SDS011;368;48.698;9.116;2023-03-04T05:50:14;36.70;;;27.70;;
769;SDS011;368;48.698;9.116;2023-03-04T05:52:41;36.60;;;27.55;;
769;SDS011;368;48.698;9.116;2023-03-04T05:55:10;41.08;;;28.20;;
769;SDS011;368;48.698;9.116;2023-03-04T05:57:38;42.70;;;28.60;;
769;SDS011;368;48.698;9.116;2023-03-04T06:00:05;41.15;;;27.45;;
769;SDS011;368;48.698;9.116;2023-03-04T06:02:33;37.80;;;26.27;;
769;SDS011;368;48.698;9.116;2023-03-04T06:05:00;40.75;;;25.83;;
769;SDS011;368;48.698;9.116;2023-03-04T06:07:27;37.38;;;24.67;;
769;SDS011;368;48.698;9.116;2023-03-04T06:09:54;43.47;;;25.17;;
769;SDS011;368;48.698;9.116;2023-03-04T06:12:22;39.70;;;25.23;;
769;SDS011;368;48.698;9.116;2023-03-04T06:14:50;36.70;;;24.10;;
769;SDS011;368;48.698;9.116;2023-03-04T06:17:17;45.35;;;27.77;;
769;SDS011;368;48.698;9.116;2023-03-04T06:19:44;40.22;;;25.92;;
769;SDS011;368;48.698;9.116;2023-03-04T06:22:11;48.95;;;28.02;;
769;SDS011;368;48.698;9.116;2023-03-04T06:24:38;48.88;;;28.52;;
769;SDS011;368;48.698;9.116;2023-03-04T06:27:05;48.88;;;28.35;;
769;SDS011;368;48.698;9.116;2023-03-04T06:29:34;48.67;;;30.73;;
769;SDS011;368;48.698;9.116;2023-03-04T06:32:01;42.70;;;29.42;;
769;SDS011;368;48.698;9.116;2023-03-04T06:34:28;47.53;;;27.83;;
769;SDS011;368;48.698;9.116;2023-03-04T06:36:54;44.15;;;27.70;;
769;SDS011;368;48.698;9.116;2023-03-04T06:39:21;46.15;;;29.65;;
769;SDS011;368;48.698;9.116;2023-03-04T06:41:48;45.35;;;28.90;;
769;SDS011;368;48.698;9.116;2023-03-04T06:44:15;37.80;;;25.13;;
769;SDS011;368;48.698;9.116;2023-03-04T06:46:43;44.33;;;26.92;;
769;SDS011;368;48.698;9.116;2023-03-04T06:49:11;38.58;;;24.17;;
769;SDS011;368;48.698;9.116;2023-03-04T06:51:40;39.08;;;23.98;;
769;SDS011;368;48.698;9.116;2023-03-04T06:54:07;42.05;;;25.92;;
769;SDS011;368;48.698;9.116;2023-03-04T06:56:34;41.70;;;25.85;;
769;SDS011;368;48.698;9.116;2023-03-04T06:59:01;46.90;;;27.55;;
769;SDS011;368;48.698;9.116;2023-03-04T07:01:28;45.58;;;27.08;;
769;SDS011;368;48.698;9.116;2023-03-04T07:03:57;38.20;;;25.48;;
769;SDS011;368;48.698;9.116;2023-03-04T07:06:25;40.25;;;25.52;;
769;SDS011;368;48.698;9.116;2023-03-04T07:08:53;39.05;;;24.02;;
769;SDS011;368;48.698;9.116;2023-03-04T07:11:20;40.92;;;25.10;;
769;SDS011;368;48.698;9.116;2023-03-04T07:13:51;37.45;;;25.88;;
769;SDS011;368;48.698;9.116;2023-03-04T07:16:38;40.45;;;27.50;;
769;SDS011;368;48.698;9.116;2023-03-04T07:19:06;43.85;;;25.35;;
769;SDS011;368;48.698;9.116;2023-03-04T07:21:33;38.78;;;24.20;;
769;SDS011;368;48.698;9.116;2023-03-04T07:24:01;37.97;;;23.52;;
769;SDS011;368;48.698;9.116;2023-03-04T07:26:28;39.03;;;24.77;;
769;SDS011;368;48.698;9.116;2023-03-04T07:28:56;37.55;;;23.73;;
769;SDS011;368;48.698;9.116;2023-03-04T07:31:24;42.75;;;25.13;;
769;SDS011;368;48.698;9.116;2023-03-04T07:33:55;34.70;;;23.83;;
769;SDS011;368;48.698;9.116;2023-03-04T07:36:24;39.80;;;25.10;;
769;SDS011;368;48.698;9.116;2023-03-04T07:38:52;37.78;;;23.63;;
769;SDS011;368;48.698;9.116;2023-03-04T07:41:20;40.33;;;25.27;;
769;SDS011;368;48.698;9.116;2023-03-04T07:43:49;40.55;;;24.20;;
769;SDS011;368;48.698;9.116;2023-03-04T07:46:17;43.95;;;25.75;;
769;SDS011;368;48.698;9.116;2023-03-04T07:48:44;39.60;;;24.77;;
769;SDS011;368;48.698;9.116;2023-03-04T07:51:12;37.90;;;23.73;;
769;SDS011;368;48.698;9.116;2023-03-04T07:53:43;38.53;;;24.43;;
769;SDS011;368;48.698;9.116;2023-03-04T07:56:11;38.50;;;25.20;;
769;SDS011;368;48.698;9.116;2023-03-04T07:58:40;39.33;;;24.07;;
769;SDS011;368;48.698;9.116;2023-03-04T08:01:07;39.20;;;25.00;;
769;SDS011;368;48.698;9.116;2023-03-04T08:03:35;41.42;;;24.98;;
769;SDS011;368;48.698;9.116;2023-03-04T08:06:03;39.67;;;23.10;;
769;SDS011;368;48.698;9.116;2023-03-04T08:08:31;33.17;;;21.53;;
769;SDS011;368;48.698;9.116;2023-03-04T08:10:59;36.03;;;21.10;;
769;SDS011;368;48.698;9.116;2023-03-04T08:13:29;31.63;;;20.90;;
769;SDS011;368;48.698;9.116;2023-03-04T08:15:57;36.73;;;21.23;;
769;SDS011;368;48.698;9.116;2023-03-04T08:18:24;36.50;;;22.25;;
769;SDS011;368;48.698;9.116;2023-03-04T08:20:52;36.00;;;20.58;;
769;SDS011;368;48.698;9.116;2023-03-04T08:23:19;33.20;;;21.60;;
769;SDS011;368;48.698;9.116;2023-03-04T08:25:46;35.87;;;21.13;;
769;SDS011;368;48.698;9.116;2023-03-04T08:28:14;31.57;;;21.13;;
769;SDS011;368;48.698;9.116;2023-03-04T08:30:41;37.57;;;21.50;;
769;SDS011;368;48.698;9.116;2023-03-04T08:33:08;32.60;;;20.93;;
769;SDS011;368;48.698;9.116;2023-03-04T08:35:36;36.57;;;20.87;;
769;SDS011;368;48.698;9.116;2023-03-04T08:38:04;35.13;;;22.73;;
769;SDS011;368;48.698;9.116;2023-03-04T08:40:32;30.83;;;20.90;;
769;SDS011;368;48.698;9.116;2023-03-04T08:42:59;32.27;;;21.40;;
769;SDS011;368;48.698;9.116;2023-03-04T08:45:27;30.90;;;19.63;;
769;SDS011;368;48.698;9.116;2023-03-04T08:47:54;34.63;;;22.10;;
769;SDS011;368;48.698;9.116;2023-03-04T08:50:21;31.20;;;20.27;;
769;SDS011;368;48.698;9.116;2023-03-04T08:52:48;32.47;;;20.27;;
769;SDS011;368;48.698;9.116;2023-03-04T08:55:14;34.53;;;22.10;;
769;SDS011;368;48.698;9.116;2023-03-04T08:57:41;32.40;;;21.17;;
769;SDS011;368;48.698;9.116;2023-03-04T09:00:08;36.20;;;21.47;;
769;SDS011;368;48.698;9.116;2023-03-04T09:02:37;26.90;;;18.80;;
769;SDS011;368;48.698;9.116;2023-03-04T09:05:05;37.73;;;22.60;;
769;SDS011;368;48.698;9.116;2023-03-04T09:07:33;31.50;;;21.23;;
769;SDS011;368;48.698;9.116;2023-03-04T09:10:00;28.43;;;19.07;;
769;SDS011;368;48.698;9.116;2023-03-04T09:12:27;38.70;;;22.07;;
769;SDS011;368;48.698;9.116;2023-03-04T09:14:54;39.20;;;24.93;;
769;SDS011;368;48.698;9.116;2023-03-04T09:17:21;34.23;;;22.10;;
769;SDS011;368;48.698;9.116;2023-03-04T09:19:49;32.47;;;21.87;;
769;SDS011;368;48.698;9.116;2023-03-04T09:22:16;36.80;;;23.00;;
769;SDS011;368;48.698;9.116;2023-03-04T09:24:43;35.33;;;22.23;;
769;SDS011;368;48.698;9.116;2023-03-04T09:27:10;35.17;;;23.70;;
769;SDS011;368;48.698;9.116;2023-03-04T09:29:36;34.80;;;21.73;;
769;SDS011;368;48.698;9.116;2023-03-04T09:32:03;35.80;;;20.10;;
769;SDS011;368;48.698;9.116;2023-03-04T09:34:31;29.63;;;20.77;;
769;SDS011;368;48.698;9.116;2023-03-04T09:37:00;32.37;;;20.27;;
769;SDS011;368;48.698;9.116;2023-03-04T09:39:26;33.07;;;21.40;;
769;SDS011;368;48.698;9.116;2023-03-04T09:41:54;39.93;;;25.27;;
769;SDS011;368;48.698;9.116;2023-03-04T09:44:25;29.77;;;21.20;;
769;SDS011;368;48.698;9.116;2023-03-04T09:46:57;33.93;;;21.00;;
769;SDS011;368;48.698;9.116;2023-03-04T09:49:26;33.10;;;21.67;;
769;SDS011;368;48.698;9.116;2023-03-04T09:51:56;34.80;;;21.60;;
769;SDS011;368;48.698;9.116;2023-03-04T09:54:31;32.00;;;20.77;;
769;SDS011;368;48.698;9.116;2023-03-04T09:57:16;31.27;;;21.07;;
769;SDS011;368;48.698;9.116;2023-03-04T09:59:52;30.50;;;20.30;;
769;SDS011;368;48.698;9.116;2023-03-04T10:02:31;30.33;;;21.10;;
769;SDS011;368;48.698;9.116;2023-03-04T10:05:09;34.10;;;22.43;;
769;SDS011;368;48.698;9.116;2023-03-04T10:07:44;34.30;;;21.93;;
769;SDS011;368;48.698;9.116;2023-03-04T10:10:15;31.80;;;22.60;;
769;SDS011;368;48.698;9.116;2023-03-04T10:12:47;33.30;;;22.30;;
769;SDS011;368;48.698;9.116;2023-03-04T10:15:17;32.20;;;22.63;;
769;SDS011;368;48.698;9.116;2023-03-04T10:17:51;32.83;;;22.00;;
769;SDS011;368;48.698;9.116;2023-03-04T10:20:26;31.60;;;21.83;;
769;SDS011;368;48.698;9.116;2023-03-04T10:23:08;39.40;;;26.13;;
769;SDS011;368;48.698;9.116;2023-03-04T10:25:37;41.80;;;25.93;;
769;SDS011;368;48.698;9.116;2023-03-04T10:28:09;32.70;;;22.20;;
769;SDS011;368;48.698;9.116;2023-03-04T10:30:42;33.83;;;23.93;;
769;SDS011;368;48.698;9.116;2023-03-04T10:33:14;33.57;;;24.20;;
769;SDS011;368;48.698;9.116;2023-03-04T10:35:43;40.40;;;24.57;;
769;SDS011;368;48.698;9.116;2023-03-04T10:38:12;32.53;;;23.30;;
769;SDS011;368;48.698;9.116;2023-03-04T10:40:42;37.70;;;25.33;;
769;SDS011;368;48.698;9.116;2023-03-04T10:43:13;36.00;;;26.30;;
769;SDS011;368;48.698;9.116;2023-03-04T10:45:41;29.10;;;21.97;;
769;SDS011;368;48.698;9.116;2023-03-04T10:48:16;38.30;;;24.47;;
769;SDS011;368;48.698;9.116;2023-03-04T10:50:44;31.53;;;24.27;;
769;SDS011;368;48.698;9.116;2023-03-04T10:53:20;32.93;;;24.17;;
769;SDS011;368;48.698;9.116;2023-03-04T10:56:02;33.33;;;23.80;;
769;SDS011;368;48.698;9.116;2023-03-04T10:58:29;36.87;;;26.23;;
769;SDS011;368;48.698;9.116;2023-03-04T11:01:01;35.03;;;24.63;;
769;SDS011;368;48.698;9.116;2023-03-04T11:03:31;34.53;;;25.23;;
769;SDS011;368;48.698;9.116;2023-03-04T11:08:56;37.10;;;26.10;;
769;SDS011;368;48.698;9.116;2023-03-04T11:11:26;39.60;;;25.73;;
769;SDS011;368;48.698;9.116;2023-03-04T11:13:59;38.60;;;25.90;;
769;SDS011;368;48.698;9.116;2023-03-04T11:16:30;39.67;;;26.57;;
769;SDS011;368;48.698;9.116;2023-03-04T11:18:59;36.40;;;25.97;;
769;SDS011;368;48.698;9.116;2023-03-04T11:21:30;41.80;;;27.67;;
769;SDS011;368;48.698;9.116;2023-03-04T11:24:04;40.93;;;25.90;;
769;SDS011;368;48.698;9.116;2023-03-04T11:26:37;40.30;;;27.67;;
769;SDS011;368;48.698;9.116;2023-03-04T11:29:10;40.27;;;27.70;;
769;SDS011;368;48.698;9.116;2023-03-04T11:31:41;39.43;;;27.00;;
769;SDS011;368;48.698;9.116;2023-03-04T11:34:14;37.87;;;27.13;;
769;SDS011;368;48.698;9.116;2023-03-04T11:36:48;36.80;;;28.00;;
769;SDS011;368;48.698;9.116;2023-03-04T11:39:23;39.83;;;27.53;;
769;SDS011;368;48.698;9.116;2023-03-04T11:42:01;42.77;;;28.37;;
769;SDS011;368;48.698;9.116;2023-03-04T11:44:32;45.57;;;29.93;;
769;SDS011;368;48.698;9.116;2023-03-04T11:47:06;44.00;;;28.03;;
769;SDS011;368;48.698;9.116;2023-03-04T11:49:52;44.30;;;28.70;;
769;SDS011;368;48.698;9.116;2023-03-04T11:52:34;47.23;;;30.67;;
769;SDS011;368;48.698;9.116;2023-03-04T11:55:30;44.73;;;29.90;;
769;SDS011;368;48.698;9.116;2023-03-04T12:01:23;48.67;;;30.80;;
769;SDS011;368;48.698;9.116;2023-03-04T12:04:09;45.10;;;31.60;;
769;SDS011;368;48.698;9.116;2023-03-04T12:06:55;38.80;;;27.40;;
769;SDS011;368;48.698;9.116;2023-03-04T12:09:34;46.53;;;28.30;;
769;SDS011;368;48.698;9.116;2023-03-04T12:12:21;38.60;;;27.90;;
769;SDS011;368;48.698;9.116;2023-03-04T12:15:01;38.30;;;24.30;;
769;SDS011;368;48.698;9.116;2023-03-04T12:17:39;38.27;;;26.60;;
769;SDS011;368;48.698;9.116;2023-03-04T12:20:31;43.43;;;27.67;;
769;SDS011;368;48.698;9.116;2023-03-04T12:23:09;41.13;;;27.37;;
769;SDS011;368;48.698;9.116;2023-03-04T12:25:49;41.60;;;27.73;;
769;SDS011;368;48.698;9.116;2023-03-04T12:28:29;39.43;;;28.57;;
769;SDS011;368;48.698;9.116;2023-03-04T12:31:18;43.83;;;27.50;;
769;SDS011;368;48.698;9.116;2023-03-04T12:37:12;37.43;;;26.40;;
769;SDS011;368;48.698;9.116;2023-03-04T12:40:04;35.13;;;24.73;;
769;SDS011;368;48.698;9.116;2023-03-04T12:42:44;37.07;;;28.60;;
769;SDS011;368;48.698;9.116;2023-03-04T12:45:25;38.63;;;26.60;;
769;SDS011;368;48.698;9.116;2023-03-04T12:47:58;41.93;;;28.13;;
769;SDS011;368;48.698;9.116;2023-03-04T12:50:31;36.10;;;26.30;;
769;SDS011;368;48.698;9.116;2023-03-04T12:53:08;36.70;;;25.30;;
769;SDS011;368;48.698;9.116;2023-03-04T12:55:44;38.20;;;24.33;;
769;SDS011;368;48.698;9.116;2023-03-04T12:58:14;37.17;;;26.10;;
769;SDS011;368;48.698;9.116;2023-03-04T13:00:47;34.70;;;26.00;;
769;SDS011;368;48.698;9.116;2023-03-04T13:03:21;36.37;;;25.43;;
769;SDS011;368;48.698;9.116;2023-03-04T13:05:55;35.93;;;26.63;;
769;SDS011;368;48.698;9.116;2023-03-04T13:08:30;39.07;;;25.93;;
769;SDS011;368;48.698;9.116;2023-03-04T13:11:01;32.67;;;26.03;;
769;SDS011;368;48.698;9.116;2023-03-04T13:13:59;33.03;;;25.37;;
769;SDS011;368;48.698;9.116;2023-03-04T13:16:29;32.73;;;24.30;;
769;SDS011;368;48.698;9.116;2023-03-04T13:18:58;28.90;;;24.13;;
769;SDS011;368;48.698;9.116;2023-03-04T13:21:26;37.17;;;26.30;;
769;SDS011;368;48.698;9.116;2023-03-04T13:23:55;35.57;;;26.43;;
769;SDS011;368;48.698;9.116;2023-03-04T13:26:28;33.30;;;26.13;;
769;SDS011;368;48.698;9.116;2023-03-04T13:29:08;32.97;;;26.37;;
769;SDS011;368;48.698;9.116;2023-03-04T13:31:57;38.10;;;24.93;;
769;SDS011;368;48.698;9.116;2023-03-04T13:34:41;39.37;;;29.17;;
769;SDS011;368;48.698;9.116;2023-03-04T13:37:24;38.90;;;27.73;;
769;SDS011;368;48.698;9.116;2023-03-04T13:42:53;41.60;;;27.60;;
769;SDS011;368;48.698;9.116;2023-03-04T13:45:31;44.27;;;28.00;;
769;SDS011;368;48.698;9.116;2023-03-04T13:48:01;37.70;;;26.63;;
769;SDS011;368;48.698;9.116;2023-03-04T13:50:35;39.07;;;28.80;;
769;SDS011;368;48.698;9.116;2023-03-04T13:53:21;39.27;;;27.57;;
769;SDS011;368;48.698;9.116;2023-03-04T13:56:05;40.40;;;27.57;;
769;SDS011;368;48.698;9.116;2023-03-04T13:59:08;49.70;;;33.70;;
769;SDS011;368;48.698;9.116;2023-03-04T14:01:50;43.67;;;28.40;;
769;SDS011;368;48.698;9.116;2023-03-04T14:04:25;43.90;;;29.00;;
769;SDS011;368;48.698;9.116;2023-03-04T14:06:54;44.13;;;29.93;;
769;SDS011;368;48.698;9.116;2023-03-04T14:09:24;44.93;;;27.70;;
769;SDS011;368;48.698;9.116;2023-03-04T14:11:52;40.80;;;26.57;;
769;SDS011;368;48.698;9.116;2023-03-04T14:14:23;34.67;;;24.80;;
769;SDS011;368;48.698;9.116;2023-03-04T14:16:53;36.20;;;24.80;;
769;SDS011;368;48.698;9.116;2023-03-04T14:19:25;36.53;;;24.77;;
769;SDS011;368;48.698;9.116;2023-03-04T14:21:54;29.10;;;22.50;;
769;SDS011;368;48.698;9.116;2023-03-04T14:24:22;35.93;;;22.80;;
769;SDS011;368;48.698;9.116;2023-03-04T14:27:02;34.93;;;23.50;;
769;SDS011;368;48.698;9.116;2023-03-04T14:29:35;35.40;;;23.90;;
769;SDS011;368;48.698;9.116;2023-03-04T14:32:01;38.03;;;23.93;;
769;SDS011;368;48.698;9.116;2023-03-04T14:34:33;41.10;;;23.60;;
769;SDS011;368;48.698;9.116;2023-03-04T14:37:02;38.67;;;25.00;;
769;SDS011;368;48.698;9.116;2023-03-04T14:39:30;35.90;;;24.10;;
769;SDS011;368;48.698;9.116;2023-03-04T14:42:03;35.17;;;23.73;;
769;SDS011;368;48.698;9.116;2023-03-04T14:44:35;41.47;;;24.60;;
769;SDS011;368;48.698;9.116;2023-03-04T14:47:06;37.10;;;23.20;;
769;SDS011;368;48.698;9.116;2023-03-04T14:49:40;34.03;;;22.97;;
769;SDS011;368;48.698;9.116;2023-03-04T14:55:00;41.10;;;25.03;;
769;SDS011;368;48.698;9.116;2023-03-04T14:57:48;38.93;;;22.70;;
769;SDS011;368;48.698;9.116;2023-03-04T15:00:26;36.50;;;25.00;;
769;SDS011;368;48.698;9.116;2023-03-04T15:02:55;38.13;;;23.77;;
769;SDS011;368;48.698;9.116;2023-03-04T15:05:26;38.20;;;22.00;;
769;SDS011;368;48.698;9.116;2023-03-04T15:07:54;45.00;;;25.27;;
769;SDS011;368;48.698;9.116;2023-03-04T15:10:24;34.80;;;21.77;;
769;SDS011;368;48.698;9.116;2023-03-04T15:12:54;39.23;;;22.57;;
769;SDS011;368;48.698;9.116;2023-03-04T15:18:22;43.67;;;26.50;;
769;SDS011;368;48.698;9.116;2023-03-04T15:20:55;42.63;;;23.60;;
769;SDS011;368;48.698;9.116;2023-03-04T15:23:24;48.33;;;25.37;;
769;SDS011;368;48.698;9.116;2023-03-04T15:25:51;41.70;;;25.20;;
769;SDS011;368;48.698;9.116;2023-03-04T15:28:20;43.97;;;25.73;;
769;SDS011;368;48.698;9.116;2023-03-04T15:30:47;40.37;;;25.30;;
769;SDS011;368;48.698;9.116;2023-03-04T15:33:14;39.60;;;24.87;;
769;SDS011;368;48.698;9.116;2023-03-04T15:35:44;37.67;;;24.83;;
769;SDS011;368;48.698;9.116;2023-03-04T15:38:18;48.37;;;26.53;;
769;SDS011;368;48.698;9.116;2023-03-04T15:40:46;36.77;;;24.93;;
769;SDS011;368;48.698;9.116;2023-03-04T15:43:14;37.27;;;23.47;;
769;SDS011;368;48.698;9.116;2023-03-04T15:45:42;41.33;;;25.23;;
769;SDS011;368;48.698;9.116;2023-03-04T15:48:10;35.13;;;24.33;;
769;SDS011;368;48.698;9.116;2023-03-04T15:50:39;40.50;;;23.90;;
769;SDS011;368;48.698;9.116;2023-03-04T15:53:08;34.07;;;21.60;;